Latest Weather Observations for Bombala AWS

IDN60801

Issued at 3:32 pm EST Wednesday 27 May 2015 (issued every 30 minutes, with the page automatically refreshed every 10 minutes)

About weather observations | Map of weather stations | Latest weather observations for NSW | Other Formats
Station Details ID: 070328 Name: BOMBALA AWS Lat: -37.00 Lon: 149.23 Height: 760.5 m
Data from the previous 72 hours. | See also: Recent months at Bombala AWS
Date/Time
EST
Temp
°C
App
Temp
°C
Dew
Point
Rel
Hum
%
Delta-T
°C
Wind Press
QNH
hPa
Press
MSL
hPa
Rain
since 9 am
mm
Dir
 
Spd
km/h
Gust
km/h
Spd
kts
Gust
kts
27/03:30pm 12.2 9.4 7.1 71 2.6 WNW 11 15 6 8 1021.0 1021.2 0.0
27/03:00pm 12.5 9.2 6.5 67 3.0 WNW 13 17 7 9 1021.1 1021.3 0.0
27/02:30pm 12.9 9.7 6.9 67 3.0 WNW 13 19 7 10 1021.0 1021.2 0.0
27/02:00pm 13.0 8.3 5.9 62 3.5 WNW 20 30 11 16 1021.0 1021.2 0.0
27/01:30pm 13.6 9.9 6.2 61 3.7 WNW 15 24 8 13 1021.0 1021.2 0.0
27/01:00pm 14.0 11.0 6.1 59 3.9 NNW 11 17 6 9 1021.2 1021.4 0.0
27/12:30pm 15.1 11.5 5.0 51 5.0 WNW 13 20 7 11 1021.4 1021.6 0.0
27/12:00pm 14.2 10.6 4.8 53 4.5 WNW 13 20 7 11 1021.9 1022.2 0.0
27/11:30am 13.4 9.1 3.5 51 4.6 NW 15 20 8 11 1022.2 1022.5 0.0
27/11:00am 12.4 7.6 2.8 52 4.4 NW 17 20 9 11 1022.8 1023.0 0.0
27/10:30am 11.5 6.6 2.3 53 4.1 NW 17 22 9 12 1023.1 1023.4 0.0
27/10:00am 10.4 6.9 5.6 72 2.3 NNW 13 15 7 8 1023.1 1023.4 0.0
27/09:30am 7.8 5.2 4.0 77 1.7 NNW 7 13 4 7 1023.4 1023.7 0.0
27/09:00am 7.0 5.4 4.3 83 1.2 N 2 6 1 3 1023.5 1023.8 0.0
27/08:30am 5.2 2.8 4.5 95 0.3 N 6 7 3 4 1023.6 1023.9 0.0
27/08:00am 3.2 0.6 3.1 99 0.0 NNW 6 7 3 4 1023.7 1024.0 0.0
27/07:30am 2.9 0.2 2.8 99 0.0 N 6 6 3 3 1023.4 1023.7 0.0
27/07:00am 2.8 -0.1 2.7 99 0.0 N 7 7 4 4 1023.4 1023.7 0.0
27/06:30am 2.9 -0.3 2.8 99 0.0 N 9 11 5 6 1023.1 1023.4 0.0
27/06:00am 2.7 0.0 2.6 99 0.0 N 6 6 3 3 1022.9 1023.2 0.0
27/05:30am 2.7 -0.2 2.6 99 0.0 N 7 9 4 5 1022.8 1023.0 0.0
27/05:00am 2.9 0.0 2.8 99 0.0 NNW 7 9 4 5 1022.7 1022.9 0.0
27/04:30am 3.1 0.8 3.0 99 0.0 NW 4 6 2 3 1022.6 1022.8 0.0
27/04:00am 2.6 -0.1 2.5 99 0.0 NNW 6 7 3 4 1022.8 1023.0 0.0
27/03:30am 3.1 0.5 3.0 99 0.0 N 6 6 3 3 1023.0 1023.3 0.0
27/03:00am 3.3 1.8 3.2 99 0.0 CALM 0 6 0 3 1023.5 1023.8 0.0
27/02:30am 3.9 1.8 3.8 99 0.0 WNW 4 6 2 3 1023.9 1024.1 0.0
27/02:00am 3.0 0.7 2.9 99 0.0 NW 4 6 2 3 1024.0 1024.3 0.0
27/01:30am 3.2 0.6 3.1 99 0.0 NW 6 7 3 4 1024.1 1024.4 0.0
27/01:00am 2.2 -0.6 2.1 99 0.0 NW 6 6 3 3 1024.5 1024.8 0.0
27/12:30am 3.5 0.9 3.4 99 0.0 WNW 6 7 3 4 1024.4 1024.7 0.0
27/12:00am 2.6 0.3 2.5 99 0.0 NNW 4 6 2 3 1024.6 1024.9 0.0
 
Date/Time
EST
Temp
°C
App
Temp
°C
Dew
Point
Rel
Hum
%
Delta-T
°C
Wind Press
QNH
hPa
Press
MSL
hPa
Rain
since 9 am
mm
Dir
 
Spd
km/h
Gust
km/h
Spd
kts
Gust
kts
26/11:30pm 2.3 -0.1 2.2 99 0.0 NNW 4 6 2 3 1024.9 1025.2 0.0
26/11:00pm 3.1 1.6 3.0 99 0.0 CALM 0 6 0 3 1025.0 1025.3 0.0
26/10:30pm 2.4 0.0 2.3 99 0.0 NNW 4 7 2 4 1025.6 1025.9 0.0
26/10:00pm 2.6 -0.7 2.5 99 0.0 SSE 9 11 5 6 1025.4 1025.7 0.0
26/09:30pm 3.6 2.2 3.5 99 0.0 CALM 0 2 0 1 1026.0 1026.3 0.0
26/09:00pm 2.2 0.5 2.1 99 0.0 CALM 0 0 0 0 1026.1 1026.4 0.0
26/08:30pm 3.2 1.7 3.1 99 0.0 CALM 0 0 0 0 1026.1 1026.4 0.0
26/08:00pm 3.3 1.8 3.2 99 0.0 CALM 0 0 0 0 1026.2 1026.6 0.0
26/07:30pm 4.5 2.5 4.2 98 0.1 ESE 4 6 2 3 1026.3 1026.7 0.0
26/07:00pm 4.8 3.5 4.1 95 0.3 CALM 0 0 0 0 1026.4 1026.8 0.0
26/06:30pm 6.2 3.8 4.4 88 0.8 ESE 6 6 3 3 1026.2 1026.6 0.0
26/06:00pm 6.4 4.3 3.7 83 1.2 ESE 4 6 2 3 1026.3 1026.7 0.0
26/05:30pm 7.0 4.4 3.3 77 1.6 E 6 7 3 4 1026.2 1026.6 0.0
26/05:00pm 7.1 4.2 2.4 72 2.0 ESE 7 9 4 5 1026.0 1026.3 0.0
26/04:30pm 8.3 5.4 2.5 67 2.5 SE 7 9 4 5 1026.0 1026.3 0.0
26/04:00pm 11.2 8.0 -3.3 36 5.7 S 4 6 2 3 1025.9 1026.2 0.0
26/03:30pm 12.5 9.7 -3.3 33 6.3 SSE 2 4 1 2 1026.0 1026.3 0.0
26/03:00pm 12.1 9.0 -5.8 28 6.7 SE 2 4 1 2 1026.0 1026.3 0.0
26/02:30pm 12.9 9.9 -5.1 28 7.0 ENE 2 6 1 3 1026.1 1026.4 0.0
26/02:00pm 12.7 9.7 -4.9 29 6.8 SE 2 4 1 2 1026.4 1026.8 0.0
26/01:30pm 12.8 10.0 -3.0 33 6.4 NNW 2 6 1 3 1026.8 1027.1 0.0
26/01:00pm 11.9 9.2 0.1 44 5.0 N 4 6 2 3 1027.2 1027.5 0.0
26/12:30pm 11.0 8.3 0.4 48 4.6 N 4 6 2 3 1027.6 1028.0 0.0
26/12:00pm 9.7 6.7 2.1 59 3.3 N 7 9 4 5 1028.3 1028.6 0.0
26/11:30am 9.0 7.6 3.4 68 2.5 CALM 0 4 0 2 1029.0 1029.4 0.0
26/11:00am 6.5 4.3 3.3 80 1.4 NNW 4 6 2 3 1029.6 1029.9 0.0
26/10:30am 4.7 2.9 3.5 92 0.5 N 2 4 1 2 1029.8 1030.2 0.0
26/10:00am 2.7 1.1 2.6 99 0.0 CALM 0 0 0 0 1029.9 1030.3 0.0
26/09:30am 0.4 -1.9 0.3 99 0.0 N 2 4 1 2 1029.9 1030.3 0.0
26/09:00am -1.7 -5.6 -1.8 99 0.0 N 9 11 5 6 1030.0 1030.4 0.0
26/08:30am -3.0 -6.5 -3.1 99 -0.1 NNW 6 7 3 4 1030.1 1030.5 0.0
26/08:00am -4.3 -8.2 -4.4 99 -0.1 NNW 7 9 4 5 1030.0 1030.4 0.0
26/07:30am -6.2 -10.6 -6.3 99 -0.2 NNW 9 9 5 5 1029.9 1030.3 0.0
26/07:00am -6.8 -10.7 -6.9 99 -0.2 NNW 6 7 3 4 1029.6 1029.9 0.0
26/06:30am -5.9 -9.4 -6.0 99 -0.2 NNW 4 6 2 3 1029.2 1029.6 0.0
26/06:00am -5.4 -8.1 -5.5 99 -0.2 CALM 0 2 0 1 1029.3 1029.7 0.0
26/05:30am -6.0 -10.4 -6.1 99 -0.2 NNW 9 9 5 5 1029.3 1029.7 0.0
26/05:00am -6.7 -11.6 -6.8 99 -0.2 NNW 11 13 6 7 1029.2 1029.6 0.0
26/04:30am -6.3 -9.0 -6.4 99 -0.2 CALM 0 0 0 0 1029.3 1029.7 0.0
26/04:00am -5.3 -7.9 -5.4 99 -0.2 CALM 0 0 0 0 1029.0 1029.4 0.0
26/03:30am -5.3 -7.9 -5.4 99 -0.2 CALM 0 0 0 0 1029.2 1029.6 0.0
26/03:00am -4.3 -6.8 -4.4 99 -0.1 CALM 0 0 0 0 1029.6 1029.9 0.0
26/02:30am -3.7 -6.2 -3.8 99 -0.1 CALM 0 2 0 1 1029.7 1030.1 0.0
26/02:00am -4.5 -7.8 -4.6 99 -0.2 SSE 4 6 2 3 1029.7 1030.1 0.0
26/01:30am -4.1 -7.4 -4.2 99 -0.1 SSE 4 6 2 3 1029.8 1030.2 0.0
26/01:00am -3.1 -6.6 -3.2 99 -0.1 SSE 6 7 3 4 1029.8 1030.2 0.0
26/12:30am -2.9 -5.7 -3.0 99 -0.1 SSE 2 4 1 2 1029.8 1030.2 0.0
26/12:00am -2.2 -4.5 -2.3 99 -0.1 CALM 0 0 0 0 1029.9 1030.3 0.0
 
Date/Time
EST
Temp
°C
App
Temp
°C
Dew
Point
Rel
Hum
%
Delta-T
°C
Wind Press
QNH
hPa
Press
MSL
hPa
Rain
since 9 am
mm
Dir
 
Spd
km/h
Gust
km/h
Spd
kts
Gust
kts
25/11:30pm -1.5 -3.7 -1.6 99 0.0 CALM 0 0 0 0 1030.1 1030.5 0.0
25/11:00pm -0.8 -2.9 -0.9 99 0.0 CALM 0 0 0 0 1030.3 1030.7 0.0
25/10:30pm -0.6 -2.7 -0.7 99 0.0 CALM 0 0 0 0 1030.3 1030.7 0.0
25/10:00pm 0.6 -1.3 0.5 99 0.0 CALM 0 0 0 0 1030.4 1030.8 0.0
25/09:30pm 1.1 -0.7 1.0 99 0.0 CALM 0 0 0 0 1030.4 1030.8 0.0
25/09:00pm 2.1 0.4 2.0 99 0.0 CALM 0 0 0 0 1030.4 1030.8 0.0
25/08:30pm 3.5 2.1 3.4 99 0.0 CALM 0 4 0 2 1030.2 1030.6 0.0
25/08:00pm 4.3 2.3 4.2 99 0.0 SE 4 6 2 3 1030.0 1030.4 0.0
25/07:30pm 4.1 2.3 3.7 97 0.2 SE 2 4 1 2 1029.8 1030.2 0.0
25/07:00pm 4.8 2.2 4.1 95 0.3 SE 7 11 4 6 1029.7 1030.1 0.0
25/06:30pm 4.6 1.7 2.8 88 0.8 SSE 7 9 4 5 1029.5 1029.8 0.0
25/06:00pm 5.6 2.9 3.6 87 0.9 S 7 9 4 5 1029.1 1029.5 0.0
25/05:30pm 5.7 2.5 3.2 84 1.1 SE 9 13 5 7 1028.7 1029.1 0.0
25/05:00pm 5.9 2.6 2.2 77 1.6 SSE 9 11 5 6 1028.8 1029.2 0.0
25/04:30pm 7.5 4.5 4.1 79 1.5 S 9 11 5 6 1028.9 1029.3 0.0
25/04:00pm 8.9 6.7 6.0 82 1.4 SSE 7 9 4 5 1028.5 1028.9 0.0
25/03:30pm 11.7 9.4 3.0 55 4.0 ENE 4 4 2 2 1028.6 1029.0 0.0
25/03:00pm 12.5 10.8 2.1 49 4.7 CALM 0 0 0 0 1028.8 1029.2 0.0
25/02:30pm 12.3 10.7 2.7 52 4.4 CALM 0 0 0 0 1028.9 1029.3 0.0
25/02:00pm 12.5 10.8 1.8 48 4.8 CALM 0 2 0 1 1028.8 1029.2 0.0
25/01:30pm 12.2 10.2 2.4 51 4.4 N 2 6 1 3 1028.9 1029.3 0.0
25/01:00pm 11.8 10.0 1.2 48 4.6 CALM 0 4 0 2 1029.2 1029.6 0.0
25/12:30pm 11.0 8.6 -0.2 46 4.7 NW 2 6 1 3 1029.7 1030.1 0.0
25/12:00pm 9.9 6.1 2.0 58 3.5 NW 11 13 6 7 1030.2 1030.6 0.0
25/11:30am 8.2 4.9 2.7 68 2.4 NNW 9 13 5 7 1030.5 1030.9 0.0
25/11:00am 7.3 4.7 4.1 80 1.4 NNW 7 9 4 5 1031.1 1031.5 0.0
25/10:30am 5.3 2.9 2.0 79 1.4 N 4 6 2 3 1031.0 1031.4 0.0
25/10:00am 3.7 2.0 2.1 89 0.7 CALM 0 2 0 1 1031.2 1031.6 0.0
25/09:30am 0.9 -1.1 0.0 94 0.3 CALM 0 0 0 0 1031.4 1031.8 0.0
25/09:00am -1.2 -3.4 -1.3 99 0.0 CALM 0 2 0 1 1031.5 1031.9 0.2
25/08:30am -2.4 -5.5 -2.5 99 -0.1 NNW 4 7 2 4 1031.6 1032.0 0.2
25/08:00am -3.0 -6.2 -3.1 99 -0.1 NNW 4 6 2 3 1031.3 1031.7 0.2
25/07:30am -3.3 -5.7 -3.4 99 -0.1 CALM 0 0 0 0 1031.0 1031.4 0.2
25/07:00am -3.1 -5.9 -3.2 99 -0.1 WNW 2 6 1 3 1031.2 1031.6 0.2
25/06:30am -3.7 -7.3 -3.8 99 -0.1 NW 6 7 3 4 1031.1 1031.5 0.2
25/06:00am -3.5 -7.1 -3.6 99 -0.1 NW 6 7 3 4 1030.9 1031.3 0.2
25/05:30am -3.6 -6.8 -3.7 99 -0.1 NNW 4 6 2 3 1030.7 1031.2 0.2
25/05:00am -3.3 -6.1 -3.4 99 -0.1 NNW 2 4 1 2 1030.4 1030.8 0.2
25/04:30am -4.2 -8.1 -4.3 99 -0.1 NNW 7 9 4 5 1030.5 1030.9 0.2
25/04:00am -3.8 -7.6 -3.9 99 -0.1 NW 7 9 4 5 1030.6 1031.0 0.2
25/03:30am -3.3 -6.9 -3.4 99 -0.1 NW 6 6 3 3 1030.5 1030.9 0.2
25/03:00am -3.8 -7.4 -3.9 99 -0.1 NNW 6 6 3 3 1030.7 1031.2 0.2
25/02:30am -2.8 -6.3 -2.9 99 -0.1 NNW 6 6 3 3 1030.9 1031.3 0.2
25/02:00am -3.2 -6.8 -3.3 99 -0.1 NW 6 6 3 3 1031.1 1031.5 0.2
25/01:30am -2.4 -5.5 -2.5 99 -0.1 NW 4 6 2 3 1031.2 1031.6 0.2
25/01:00am -2.2 -5.3 -2.3 99 -0.1 NW 4 6 2 3 1031.1 1031.5 0.2
25/12:30am -2.5 -6.0 -2.9 97 0.0 NW 6 7 3 4 1031.1 1031.5 0.2
25/12:00am -1.7 -5.1 -1.8 99 0.0 NW 6 6 3 3 1031.1 1031.5 0.2
 
Date/Time
EST
Temp
°C
App
Temp
°C
Dew
Point
Rel
Hum
%
Delta-T
°C
Wind Press
QNH
hPa
Press
MSL
hPa
Rain
since 9 am
mm
Dir
 
Spd
km/h
Gust
km/h
Spd
kts
Gust
kts
24/11:30pm -1.8 -5.2 -2.4 96 0.1 NNW 6 7 3 4 1031.4 1031.8 0.2
24/11:00pm -0.6 -3.5 -1.2 96 0.2 NNW 4 4 2 2 1031.5 1031.9 0.2
24/10:30pm -0.1 -2.6 -0.8 95 0.3 NNW 2 4 1 2 1031.6 1032.0 0.2
24/10:00pm 0.0 -2.5 -0.8 94 0.3 NNW 2 2 1 1 1031.6 1032.0 0.2
24/09:30pm 0.7 -2.0 0.0 95 0.3 NNW 4 6 2 3 1031.6 1032.0 0.2
24/09:00pm 1.0 -1.7 0.4 96 0.2 NNW 4 6 2 3 1031.3 1031.7 0.2
24/08:30pm 2.0 -0.5 1.6 97 0.2 WNW 4 7 2 4 1031.4 1031.8 0.2
24/08:00pm 3.0 1.0 2.1 94 0.4 W 2 4 1 2 1031.2 1031.6 0.2
24/07:30pm 2.9 1.3 2.2 95 0.3 CALM 0 0 0 0 1031.3 1031.7 0.2
24/07:00pm 4.3 2.9 3.6 95 0.3 CALM 0 0 0 0 1031.2 1031.6 0.2
24/06:30pm 5.7 3.8 5.0 95 0.3 SSE 4 4 2 2 1030.9 1031.3 0.2
24/06:00pm 5.8 3.5 4.8 93 0.4 SE 6 6 3 3 1031.0 1031.4 0.2
24/05:30pm 7.2 5.0 5.3 88 0.9 SE 6 7 3 4 1030.7 1031.2 0.2
24/05:00pm 8.1 5.4 5.4 83 1.3 SSE 9 9 5 5 1030.5 1030.9 0.2
24/04:30pm 9.3 6.6 5.7 78 1.7 SSE 9 9 5 5 1030.3 1030.7 0.2
24/04:00pm 11.3 8.6 5.8 69 2.6 S 9 11 5 6 1030.1 1030.5 0.2

Other Formats:

Comma delimited format used in spreadsheet applications
http://www.bom.gov.au/fwo/IDN60801/IDN60801.94929.axf

JavaScript Object Notation format (JSON) in row-major order
http://www.bom.gov.au/fwo/IDN60801/IDN60801.94929.json